createdAt,value
2023-05-03T00:02:26.831Z,61.72
2023-05-03T00:04:54.859Z,61.88
2023-05-03T00:07:22.981Z,62.13
2023-05-03T00:09:51.086Z,62.18
2023-05-03T00:12:18.912Z,62.10
2023-05-03T00:14:46.792Z,63.61
2023-05-03T00:17:14.881Z,61.60
2023-05-03T00:19:42.673Z,57.52
2023-05-03T00:22:10.540Z,56.74
2023-05-03T00:24:38.350Z,57.68
2023-05-03T00:27:06.788Z,59.11
2023-05-03T00:29:34.573Z,60.00
2023-05-03T00:32:02.556Z,61.07
2023-05-03T00:34:30.399Z,61.71
2023-05-03T00:36:58.166Z,63.15
2023-05-03T00:39:26.095Z,60.79
2023-05-03T00:41:57.966Z,56.00
2023-05-03T00:44:25.778Z,55.99
2023-05-03T00:46:54.889Z,56.85
2023-05-03T00:49:24.910Z,57.78
2023-05-03T00:51:55.696Z,58.80
2023-05-03T00:54:24.189Z,59.28
2023-05-03T00:56:52.720Z,59.66
2023-05-03T00:59:20.964Z,59.98
2023-05-03T01:01:51.469Z,60.34
2023-05-03T01:04:21.729Z,60.78
2023-05-03T01:07:24.016Z,61.02
2023-05-03T01:09:51.755Z,61.37
2023-05-03T01:12:46.702Z,63.29
2023-05-03T01:15:33.824Z,61.48
2023-05-03T01:18:12.559Z,56.98
2023-05-03T01:20:43.887Z,56.84
2023-05-03T01:23:24.900Z,58.07
2023-05-03T01:25:54.477Z,58.87
2023-05-03T01:28:22.333Z,59.63
2023-05-03T01:30:52.698Z,60.44
2023-05-03T01:34:09.221Z,61.18
2023-05-03T01:36:37.125Z,61.10
2023-05-03T01:39:14.700Z,62.94
2023-05-03T01:41:43.408Z,61.29
2023-05-03T01:44:11.622Z,56.91
2023-05-03T01:46:46.537Z,56.84
2023-05-03T01:49:14.551Z,58.01
2023-05-03T01:51:42.606Z,58.95
2023-05-03T01:54:10.779Z,59.85
2023-05-03T01:56:38.833Z,60.93
2023-05-03T01:59:06.796Z,61.26
2023-05-03T02:01:34.746Z,61.25
2023-05-03T02:04:02.924Z,61.94
2023-05-03T02:06:30.941Z,64.09
2023-05-03T02:08:58.723Z,61.76
2023-05-03T02:11:26.483Z,57.75
2023-05-03T02:13:54.283Z,57.68
2023-05-03T02:16:22.106Z,58.71
2023-05-03T02:18:49.883Z,60.05
2023-05-03T02:21:18.044Z,61.04
2023-05-03T02:23:45.692Z,61.45
2023-05-03T02:26:13.414Z,61.92
2023-05-03T02:28:41.286Z,63.46
2023-05-03T02:31:09.468Z,61.25
2023-05-03T02:33:37.476Z,56.87
2023-05-03T02:36:06.003Z,57.05
2023-05-03T02:38:34.032Z,58.63
2023-05-03T02:41:01.873Z,59.90
2023-05-03T02:43:29.815Z,60.88
2023-05-03T02:45:57.993Z,62.00
2023-05-03T02:48:26.000Z,62.72
2023-05-03T02:50:55.176Z,63.32
2023-05-03T02:53:23.089Z,59.55
2023-05-03T02:55:50.995Z,56.15
2023-05-03T02:58:18.803Z,57.23
2023-05-03T03:00:46.613Z,58.60
2023-05-03T03:03:14.626Z,59.82
2023-05-03T03:05:42.606Z,60.74
2023-05-03T03:08:10.430Z,61.66
2023-05-03T03:10:38.237Z,62.10
2023-05-03T03:13:06.057Z,63.34
2023-05-03T03:15:33.841Z,60.96
2023-05-03T03:18:01.794Z,56.44
2023-05-03T03:20:29.692Z,56.70
2023-05-03T03:22:57.618Z,58.40
2023-05-03T03:25:25.435Z,59.79
2023-05-03T03:27:53.269Z,60.30
2023-05-03T03:30:21.051Z,61.02
2023-05-03T03:32:48.909Z,61.45
2023-05-03T03:35:17.189Z,62.14
2023-05-03T03:37:45.036Z,63.41
2023-05-03T03:40:13.402Z,60.95
2023-05-03T03:42:41.181Z,56.61
2023-05-03T03:45:09.916Z,56.27
2023-05-03T03:47:37.747Z,57.52
2023-05-03T03:50:06.484Z,59.44
2023-05-03T03:52:34.513Z,60.62
2023-05-03T03:55:02.273Z,61.88
2023-05-03T03:57:31.633Z,63.49
2023-05-03T03:59:59.640Z,61.32
2023-05-03T04:02:28.015Z,56.97
2023-05-03T04:04:56.035Z,57.08
2023-05-03T04:07:23.772Z,58.57
2023-05-03T04:09:51.563Z,59.81
2023-05-03T04:12:19.630Z,60.98
2023-05-03T04:14:47.446Z,61.84
2023-05-03T04:17:15.371Z,63.26
2023-05-03T04:19:43.769Z,61.15
2023-05-03T04:22:11.630Z,56.74
2023-05-03T04:24:40.724Z,56.57
2023-05-03T04:27:08.871Z,58.22
2023-05-03T04:29:38.775Z,59.81
2023-05-03T04:32:07.926Z,60.83
2023-05-03T04:34:35.996Z,61.73
2023-05-03T04:37:05.039Z,63.19
2023-05-03T04:39:33.042Z,60.91
2023-05-03T04:42:02.262Z,56.40
2023-05-03T04:44:30.063Z,56.31
2023-05-03T04:46:57.906Z,58.08
2023-05-03T04:49:25.684Z,59.45
2023-05-03T04:51:54.506Z,60.46
2023-05-03T04:54:23.556Z,61.38
2023-05-03T04:56:51.681Z,61.88
2023-05-03T04:59:19.486Z,62.26
2023-05-03T05:01:47.351Z,63.72
2023-05-03T05:04:15.441Z,61.04
2023-05-03T05:06:43.293Z,56.30
2023-05-03T05:09:22.662Z,56.59
2023-05-03T05:11:51.033Z,58.04
2023-05-03T05:14:19.203Z,59.13
2023-05-03T05:16:47.100Z,59.81
2023-05-03T05:19:15.105Z,60.47
2023-05-03T05:21:43.019Z,60.73
2023-05-03T05:24:10.918Z,61.03
2023-05-03T05:26:38.795Z,61.24
2023-05-03T05:29:06.723Z,61.65
2023-05-03T05:31:35.266Z,61.63
2023-05-03T05:34:03.818Z,63.07
2023-05-03T05:36:31.719Z,59.82
2023-05-03T05:38:59.580Z,55.74
2023-05-03T05:41:27.451Z,55.21
2023-05-03T05:43:55.276Z,55.90
2023-05-03T05:46:23.197Z,56.31
2023-05-03T05:48:53.759Z,56.71
2023-05-03T05:51:21.706Z,57.27
2023-05-03T05:53:49.606Z,57.71
2023-05-03T05:56:17.417Z,58.31
2023-05-03T05:58:45.248Z,58.61
2023-05-03T06:01:13.338Z,59.04
2023-05-03T06:03:41.153Z,59.13
2023-05-03T06:06:09.073Z,59.77
2023-05-03T06:08:36.859Z,59.24
2023-05-03T06:11:05.079Z,59.56
2023-05-03T06:13:34.705Z,59.42
2023-05-03T06:16:03.583Z,59.55
2023-05-03T06:18:31.444Z,59.25
2023-05-03T06:20:59.533Z,60.00
2023-05-03T06:23:28.192Z,59.82
2023-05-03T06:25:56.025Z,60.42
2023-05-03T06:28:23.828Z,59.75
2023-05-03T06:30:51.886Z,58.93
2023-05-03T06:33:19.963Z,58.01
2023-05-03T06:35:47.940Z,57.02
2023-05-03T06:38:15.882Z,55.68
2023-05-03T06:40:46.018Z,55.36
2023-05-03T06:43:14.060Z,55.32
2023-05-03T06:45:43.355Z,55.10
2023-05-03T06:48:11.269Z,55.46
2023-05-03T06:50:39.941Z,55.48
2023-05-03T06:53:07.723Z,56.05
2023-05-03T06:55:35.679Z,55.28
2023-05-03T06:58:03.517Z,53.69
2023-05-03T07:00:31.407Z,53.63
2023-05-03T07:02:59.331Z,52.34
2023-05-03T07:05:27.375Z,51.84
2023-05-03T07:07:55.669Z,47.64
2023-05-03T07:10:26.260Z,48.18
2023-05-03T07:12:54.026Z,46.66
2023-05-03T07:15:23.196Z,46.41
2023-05-03T07:17:54.220Z,45.11
2023-05-03T07:20:23.023Z,43.23
2023-05-03T07:22:50.944Z,39.75
2023-05-03T07:25:18.771Z,40.54
2023-05-03T07:27:46.697Z,40.73
2023-05-03T07:30:14.860Z,38.47
2023-05-03T07:32:42.910Z,36.56
2023-05-03T07:35:10.994Z,35.66
2023-05-03T07:37:39.071Z,35.99
2023-05-03T07:40:08.014Z,36.01
2023-05-03T07:42:36.406Z,35.62
2023-05-03T07:45:04.918Z,35.21
2023-05-03T07:47:34.399Z,35.06
2023-05-03T07:50:02.336Z,36.10
2023-05-03T07:52:30.501Z,35.05
2023-05-03T07:54:59.064Z,35.14
2023-05-03T07:57:27.116Z,35.74
2023-05-03T07:59:55.647Z,36.00
2023-05-03T08:02:23.868Z,35.19
2023-05-03T08:04:52.248Z,34.36
2023-05-03T08:07:21.183Z,33.39
2023-05-03T08:09:49.614Z,32.55
2023-05-03T08:12:17.554Z,32.60
2023-05-03T08:14:46.342Z,33.56
2023-05-03T08:17:17.467Z,32.70
2023-05-03T08:19:45.362Z,32.55
2023-05-03T08:22:13.230Z,33.40
2023-05-03T08:24:42.462Z,31.29
2023-05-03T08:27:12.866Z,30.38
2023-05-03T08:29:40.932Z,28.74
2023-05-03T08:32:08.703Z,28.19
2023-05-03T08:34:36.750Z,28.86
2023-05-03T08:37:05.473Z,29.29
2023-05-03T08:39:33.845Z,28.42
2023-05-03T08:42:07.046Z,28.16
2023-05-03T08:44:38.394Z,28.90
2023-05-03T08:47:07.439Z,29.19
2023-05-03T08:49:39.230Z,28.95
2023-05-03T08:52:07.471Z,28.62
2023-05-03T08:54:35.457Z,27.90
2023-05-03T08:57:03.385Z,28.76
2023-05-03T08:59:31.305Z,28.05
2023-05-03T09:02:00.275Z,28.29
2023-05-03T09:04:34.847Z,26.56
2023-05-03T09:07:08.795Z,27.29
2023-05-03T09:09:37.036Z,27.55
2023-05-03T09:12:06.037Z,26.89
2023-05-03T09:14:45.184Z,25.75
2023-05-03T09:17:20.557Z,25.47
2023-05-03T09:19:52.584Z,25.07
2023-05-03T09:22:22.084Z,25.03
2023-05-03T09:24:56.999Z,24.99
2023-05-03T09:27:26.381Z,24.92
2023-05-03T09:29:54.945Z,25.72
2023-05-03T09:32:23.063Z,25.08
2023-05-03T09:34:50.990Z,24.27
2023-05-03T09:37:36.901Z,24.26
2023-05-03T09:40:08.770Z,24.64
2023-05-03T09:42:36.661Z,25.31
2023-05-03T09:45:05.537Z,25.94
2023-05-03T09:47:49.687Z,26.50
2023-05-03T09:50:17.688Z,26.86
2023-05-03T09:52:46.899Z,27.38
2023-05-03T09:55:17.252Z,27.41
2023-05-03T09:57:47.667Z,27.71
2023-05-03T10:00:17.281Z,27.97
2023-05-03T10:02:45.657Z,28.78
2023-05-03T10:05:14.048Z,29.73
2023-05-03T10:07:42.912Z,28.83
2023-05-03T10:10:11.445Z,27.94
2023-05-03T10:12:39.538Z,28.17
2023-05-03T10:15:08.468Z,29.04
2023-05-03T10:20:28.810Z,30.14
2023-05-03T10:23:09.578Z,29.92
2023-05-03T10:25:39.625Z,29.44
2023-05-03T10:28:09.719Z,29.83
2023-05-03T10:30:40.275Z,28.44
2023-05-03T10:33:14.246Z,28.35
2023-05-03T10:35:52.496Z,28.32
2023-05-03T10:38:23.878Z,28.15
2023-05-03T10:40:52.461Z,28.95
2023-05-03T10:43:32.217Z,29.17
2023-05-03T10:46:04.184Z,28.89
2023-05-03T10:48:35.842Z,28.96
2023-05-03T10:51:37.041Z,28.83
2023-05-03T10:54:05.191Z,28.81
2023-05-03T10:56:33.213Z,29.86
2023-05-03T10:59:01.065Z,29.68
2023-05-03T11:01:29.385Z,29.40
2023-05-03T11:04:10.857Z,29.51
2023-05-03T11:06:46.094Z,29.85
2023-05-03T11:09:14.930Z,30.08
2023-05-03T11:11:43.496Z,31.02
2023-05-03T11:14:16.440Z,31.53
2023-05-03T11:16:50.884Z,31.52
2023-05-03T11:19:18.824Z,31.44
2023-05-03T11:21:48.262Z,31.18
2023-05-03T11:24:16.481Z,31.43
2023-05-03T11:26:44.424Z,31.07
2023-05-03T11:29:14.106Z,30.64
2023-05-03T11:31:43.581Z,30.92
2023-05-03T11:34:13.565Z,30.48
2023-05-03T11:36:42.601Z,30.27
2023-05-03T11:39:15.327Z,30.47
2023-05-03T11:41:43.264Z,29.51
2023-05-03T11:44:16.990Z,29.81
2023-05-03T11:46:46.723Z,30.93
2023-05-03T11:49:19.531Z,31.23
2023-05-03T11:51:50.952Z,31.59
2023-05-03T11:54:26.144Z,31.51
2023-05-03T11:56:59.583Z,31.38
2023-05-03T11:59:44.789Z,31.46
2023-05-03T12:02:15.427Z,31.45
2023-05-03T12:04:45.780Z,31.68
2023-05-03T12:07:17.609Z,31.75
2023-05-03T12:10:05.866Z,31.94
2023-05-03T12:12:42.153Z,32.20
2023-05-03T12:15:16.373Z,32.28
2023-05-03T12:17:48.935Z,32.93
2023-05-03T12:22:57.931Z,32.94
2023-05-03T12:25:33.815Z,33.30
2023-05-03T12:30:38.307Z,33.29
2023-05-03T12:35:14.180Z,33.57
2023-05-03T12:37:43.738Z,34.12
2023-05-03T12:42:46.688Z,34.33
2023-05-03T12:45:15.022Z,34.40
2023-05-03T12:47:44.659Z,33.75
2023-05-03T12:50:12.933Z,33.50
2023-05-03T12:52:45.262Z,32.99
2023-05-03T12:55:17.712Z,32.68
2023-05-03T12:57:53.597Z,32.86
2023-05-03T13:00:36.379Z,33.20
2023-05-03T13:05:37.016Z,33.00
2023-05-03T13:08:09.613Z,33.05
2023-05-03T13:10:40.624Z,32.81
2023-05-03T13:13:09.439Z,32.81
2023-05-03T13:15:38.047Z,32.38
2023-05-03T13:18:07.389Z,32.58
2023-05-03T13:20:37.425Z,33.19
2023-05-03T13:23:05.395Z,33.19
2023-05-03T13:25:33.609Z,33.15
2023-05-03T13:28:01.723Z,33.62
2023-05-03T13:30:30.317Z,33.62
2023-05-03T13:32:58.242Z,33.54
2023-05-03T13:35:26.335Z,33.64
2023-05-03T13:37:54.248Z,34.04
2023-05-03T13:40:22.140Z,34.26
2023-05-03T13:42:50.000Z,34.52
2023-05-03T13:45:19.135Z,34.67
2023-05-03T13:48:12.250Z,34.75
2023-05-03T13:50:35.373Z,34.96
2023-05-03T13:53:03.346Z,35.11
2023-05-03T13:55:31.610Z,35.34
2023-05-03T13:57:59.574Z,35.48
2023-05-03T14:00:27.554Z,35.55
2023-05-03T14:02:57.356Z,35.81
2023-05-03T14:05:25.527Z,35.90
2023-05-03T14:07:53.722Z,36.10
2023-05-03T14:10:21.708Z,35.86
2023-05-03T14:12:50.293Z,35.89
2023-05-03T14:15:19.031Z,36.04
2023-05-03T14:17:48.052Z,35.84
2023-05-03T14:20:17.747Z,35.66
2023-05-03T14:22:46.302Z,34.91
2023-05-03T14:25:14.241Z,35.03
2023-05-03T14:27:43.135Z,35.33
2023-05-03T14:30:11.759Z,36.09
2023-05-03T14:32:39.725Z,35.73
2023-05-03T14:35:08.054Z,35.82
2023-05-03T14:37:37.119Z,36.05
2023-05-03T14:40:06.989Z,35.71
2023-05-03T14:42:35.171Z,35.75
2023-05-03T14:45:04.143Z,35.73
2023-05-03T14:47:36.558Z,35.61
2023-05-03T14:50:06.901Z,35.78
2023-05-03T14:52:36.117Z,35.88
2023-05-03T14:55:06.910Z,35.90
2023-05-03T14:57:36.459Z,36.21
2023-05-03T15:00:07.793Z,36.26
2023-05-03T15:02:36.326Z,36.23
2023-05-03T15:05:05.387Z,36.39
2023-05-03T15:07:34.561Z,36.61
2023-05-03T15:10:04.465Z,36.89
2023-05-03T15:12:33.192Z,36.90
2023-05-03T15:15:01.414Z,37.15
2023-05-03T15:17:31.076Z,37.47
2023-05-03T15:19:59.080Z,37.39
2023-05-03T15:22:27.432Z,37.35
2023-05-03T15:24:55.902Z,37.61
2023-05-03T15:27:24.210Z,37.63
2023-05-03T15:29:52.695Z,38.03
2023-05-03T15:32:20.709Z,38.26
2023-05-03T15:34:48.930Z,38.04
2023-05-03T15:37:17.038Z,38.06
2023-05-03T15:39:44.840Z,37.91
2023-05-03T15:42:12.720Z,37.78
2023-05-03T15:44:40.979Z,37.76
2023-05-03T15:47:08.810Z,37.79
2023-05-03T15:49:36.594Z,37.95
2023-05-03T15:52:04.699Z,38.07
2023-05-03T15:54:33.760Z,38.14
2023-05-03T15:57:01.643Z,38.43
2023-05-03T15:59:29.475Z,38.41
2023-05-03T16:01:57.390Z,38.51
2023-05-03T16:04:25.268Z,38.78
2023-05-03T16:06:53.234Z,38.39
2023-05-03T16:09:21.653Z,38.12
2023-05-03T16:11:49.497Z,37.71
2023-05-03T16:14:17.218Z,37.53
2023-05-03T16:16:46.434Z,37.79
2023-05-03T16:19:15.273Z,38.36
2023-05-03T16:21:43.712Z,38.20
2023-05-03T16:24:12.132Z,38.59
2023-05-03T16:26:41.072Z,38.71
2023-05-03T16:29:17.321Z,38.51
2023-05-03T16:31:47.269Z,38.38
2023-05-03T16:34:15.545Z,38.47
2023-05-03T16:36:44.283Z,38.28
2023-05-03T16:39:13.292Z,38.63
2023-05-03T16:41:41.915Z,39.69
2023-05-03T16:44:11.506Z,39.79
2023-05-03T16:46:47.732Z,39.74
2023-05-03T16:49:16.683Z,40.07
2023-05-03T16:51:45.040Z,39.97
2023-05-03T16:54:16.578Z,39.60
2023-05-03T16:56:44.779Z,39.97
2023-05-03T16:59:12.862Z,39.80
2023-05-03T17:01:40.944Z,39.23
2023-05-03T17:04:09.307Z,39.48
2023-05-03T17:06:37.584Z,40.48
2023-05-03T17:09:10.639Z,40.77
2023-05-03T17:11:39.116Z,40.33
2023-05-03T17:14:07.165Z,40.46
2023-05-03T17:16:44.484Z,41.57
2023-05-03T17:19:12.513Z,41.94
2023-05-03T17:21:40.530Z,42.33
2023-05-03T17:24:08.883Z,42.59
2023-05-03T17:26:37.392Z,42.72
2023-05-03T17:29:08.716Z,42.93
2023-05-03T17:31:36.641Z,43.21
2023-05-03T17:34:04.717Z,43.24
2023-05-03T17:36:34.826Z,43.56
2023-05-03T17:39:03.170Z,43.56
2023-05-03T17:41:31.110Z,43.27
2023-05-03T17:43:59.276Z,42.72
2023-05-03T17:46:30.849Z,42.78
2023-05-03T17:48:59.881Z,42.83
2023-05-03T17:51:31.321Z,43.60
2023-05-03T17:54:00.762Z,44.31
2023-05-03T17:56:50.108Z,44.54
2023-05-03T17:59:19.100Z,44.58
2023-05-03T18:01:50.401Z,44.80
2023-05-03T18:04:19.329Z,45.49
2023-05-03T18:06:47.613Z,45.84
2023-05-03T18:09:26.543Z,46.36
2023-05-03T18:12:00.585Z,46.61
2023-05-03T18:14:30.754Z,47.44
2023-05-03T18:16:59.280Z,47.65
2023-05-03T18:19:29.526Z,48.15
2023-05-03T18:21:59.658Z,48.88
2023-05-03T18:24:55.354Z,49.74
2023-05-03T18:27:23.391Z,49.05
2023-05-03T18:29:51.485Z,48.83
2023-05-03T18:32:19.593Z,49.21
2023-05-03T18:34:48.061Z,50.05
2023-05-03T18:37:16.041Z,50.36
2023-05-03T18:39:44.388Z,51.03
2023-05-03T18:42:13.243Z,51.10
2023-05-03T18:44:43.804Z,51.25
2023-05-03T18:47:35.929Z,51.63
2023-05-03T18:50:17.184Z,52.32
2023-05-03T18:52:51.137Z,52.82
2023-05-03T18:55:23.878Z,53.31
2023-05-03T18:57:59.646Z,53.08
2023-05-03T19:00:30.816Z,53.41
2023-05-03T19:03:02.184Z,53.42
2023-05-03T19:05:30.817Z,53.39
2023-05-03T19:08:05.431Z,53.61
2023-05-03T19:10:34.276Z,54.11
2023-05-03T19:13:03.551Z,54.47
2023-05-03T19:15:32.285Z,54.69
2023-05-03T19:18:03.054Z,55.36
2023-05-03T19:20:35.330Z,55.21
2023-05-03T19:23:03.611Z,55.44
2023-05-03T19:25:35.113Z,55.56
2023-05-03T19:28:05.303Z,55.55
2023-05-03T19:30:33.934Z,55.64
2023-05-03T19:33:02.646Z,55.54
2023-05-03T19:35:31.369Z,55.95
2023-05-03T19:38:00.078Z,56.04
2023-05-03T19:40:29.372Z,56.72
2023-05-03T19:43:02.250Z,57.04
2023-05-03T19:45:40.864Z,57.85
2023-05-03T19:48:11.724Z,58.54
2023-05-03T19:50:46.387Z,58.80
2023-05-03T19:53:14.895Z,58.57
2023-05-03T19:56:04.647Z,59.00
2023-05-03T19:58:33.247Z,59.02
2023-05-03T20:01:02.759Z,59.15
2023-05-03T20:03:34.038Z,59.26
2023-05-03T20:06:07.486Z,59.08
2023-05-03T20:08:36.189Z,59.07
2023-05-03T20:11:09.813Z,59.29
2023-05-03T20:13:39.009Z,59.71
2023-05-03T20:18:59.944Z,60.13
2023-05-03T20:21:36.108Z,60.36
2023-05-03T20:24:04.971Z,60.51
2023-05-03T20:26:40.803Z,60.49
2023-05-03T20:29:11.249Z,60.62
2023-05-03T20:31:42.087Z,60.58
2023-05-03T20:34:15.576Z,61.27
2023-05-03T20:36:50.582Z,61.32
2023-05-03T20:39:19.373Z,61.54
2023-05-03T20:41:50.320Z,61.96
2023-05-03T20:44:25.309Z,63.54
2023-05-03T20:46:54.673Z,61.91
2023-05-03T20:49:22.811Z,57.18
2023-05-03T20:51:51.078Z,56.57
2023-05-03T20:54:19.168Z,57.64
2023-05-03T20:56:47.549Z,58.35
2023-05-03T20:59:17.070Z,59.00
2023-05-03T21:01:45.208Z,59.49
2023-05-03T21:04:13.189Z,60.60
2023-05-03T21:06:44.885Z,61.07
2023-05-03T21:09:13.189Z,61.20
2023-05-03T21:11:42.408Z,61.43
2023-05-03T21:14:12.009Z,62.04
2023-05-03T21:16:40.375Z,62.11
2023-05-03T21:19:08.458Z,63.31
2023-05-03T21:21:36.785Z,61.21
2023-05-03T21:24:05.654Z,56.81
2023-05-03T21:26:34.203Z,56.57
2023-05-03T21:29:02.172Z,57.63
2023-05-03T21:31:29.939Z,58.42
2023-05-03T21:33:58.356Z,59.11
2023-05-03T21:36:27.010Z,60.18
2023-05-03T21:38:54.809Z,60.78
2023-05-03T21:41:23.708Z,60.97
2023-05-03T21:43:51.828Z,61.45
2023-05-03T21:46:19.927Z,62.23
2023-05-03T21:48:47.887Z,63.52
2023-05-03T21:51:21.637Z,60.66
2023-05-03T21:53:49.919Z,56.05
2023-05-03T21:56:18.174Z,56.18
2023-05-03T21:58:46.149Z,57.79
2023-05-03T22:01:20.468Z,58.96
2023-05-03T22:03:51.705Z,59.79
2023-05-03T22:06:19.862Z,60.70
2023-05-03T22:08:47.855Z,61.16
2023-05-03T22:11:15.676Z,61.74
2023-05-03T22:13:54.948Z,62.32
2023-05-03T22:16:31.359Z,63.57
2023-05-03T22:18:59.444Z,60.46
2023-05-03T22:21:27.503Z,55.58
2023-05-03T22:23:55.396Z,56.22
2023-05-03T22:26:24.333Z,57.87
2023-05-03T22:28:52.208Z,59.26
2023-05-03T22:31:20.480Z,59.85
2023-05-03T22:33:49.074Z,60.67
2023-05-03T22:36:17.037Z,61.28
2023-05-03T22:38:44.915Z,62.10
2023-05-03T22:41:12.820Z,63.54
2023-05-03T22:43:40.758Z,60.61
2023-05-03T22:46:08.628Z,55.95
2023-05-03T22:48:36.701Z,56.20
2023-05-03T22:51:05.008Z,57.84
2023-05-03T22:53:32.862Z,59.30
2023-05-03T22:56:04.502Z,60.15
2023-05-03T22:58:33.781Z,60.81
2023-05-03T23:01:01.718Z,61.63
2023-05-03T23:03:29.658Z,62.23
2023-05-03T23:05:57.709Z,63.57
2023-05-03T23:08:25.700Z,60.94
2023-05-03T23:10:56.308Z,56.72
2023-05-03T23:13:24.469Z,56.46
2023-05-03T23:15:54.884Z,57.89
2023-05-03T23:18:23.083Z,59.23
2023-05-03T23:20:51.030Z,60.57
2023-05-03T23:23:18.986Z,61.41
2023-05-03T23:25:47.102Z,62.14
2023-05-03T23:28:15.214Z,63.41
2023-05-03T23:30:44.665Z,61.12
2023-05-03T23:33:13.339Z,56.65
2023-05-03T23:35:41.925Z,56.99
2023-05-03T23:38:09.838Z,58.59
2023-05-03T23:40:37.715Z,59.68
2023-05-03T23:43:05.639Z,60.49
2023-05-03T23:45:33.513Z,61.18
2023-05-03T23:48:01.456Z,61.94
2023-05-03T23:50:29.460Z,63.15
2023-05-03T23:52:58.632Z,61.26
2023-05-03T23:55:26.641Z,56.73
2023-05-03T23:57:54.653Z,56.86
